Date,TemperatureHighF,TemperatureAvgF,TemperatureLowF,DewpointHighF,DewpointAvgF,DewpointLowF,HumidityHigh,HumidityAvg,HumidityLow,PressureMaxIn,PressureMinIn,WindSpeedMaxMPH,WindSpeedAvgMPH,GustSpeedMaxMPH,PrecipitationSumIn
2012-1-1,55.2,39.1,28.0,45.7,33.9,19.8,95,82,59,29.62,29.22,27,7,27,0.13
2012-1-2,28.2,22.8,18.1,20.0,15.1,8.4,85,72,46,29.44,29.34,27,11,27,0.00
2012-1-3,18.1,13.3,5.4,12.4,6.4,-3.7,79,73,61,29.68,29.42,27,9,27,0.00
2012-1-4,31.8,19.9,4.5,19.6,5.9,-5.6,75,58,26,29.67,29.44,21,8,21,0.00
2012-1-5,38.3,31.0,26.6,24.1,19.2,16.2,72,62,44,29.54,29.41,18,6,18,0.00
2012-1-6,55.4,46.3,37.0,28.5,25.0,17.5,56,45,32,29.44,29.36,24,9,24,0.00
2012-1-7,52.5,45.3,31.6,41.8,30.6,19.1,76,58,37,29.62,29.32,24,9,24,0.00
2012-1-8,36.3,31.2,23.7,26.1,22.8,16.8,80,71,56,29.80,29.61,12,3,12,0.00
2012-1-9,41.7,31.4,24.8,27.6,21.7,17.2,82,68,53,29.78,29.51,13,4,13,0.00
2012-1-10,44.4,35.9,27.9,29.6,25.8,21.3,81,67,56,29.54,29.46,17,6,17,0.00
2012-1-11,36.9,32.5,24.4,35.3,28.5,20.5,94,85,70,29.53,29.06,14,4,14,0.69
2012-1-12,45.3,39.9,35.8,42.9,38.3,33.2,99,94,86,29.09,28.91,24,4,24,0.13
2012-1-13,35.6,17.6,13.8,33.2,11.0,5.1,95,75,66,29.43,28.93,31,16,31,0.01
2012-1-14,21.9,16.7,14.4,12.1,8.6,6.0,76,70,57,29.61,29.42,17,7,17,0.00
2012-1-15,25.0,15.4,7.9,10.5,6.0,1.2,78,66,53,29.95,29.60,12,3,12,0.00
2012-1-16,44.8,21.4,7.0,39.6,13.6,0.0,95,72,38,29.93,29.52,27,3,27,0.20
2012-1-17,54.7,47.6,35.1,47.9,42.2,22.4,90,82,60,29.53,29.21,33,15,33,0.30
2012-1-18,34.9,22.6,11.1,25.1,14.1,5.7,84,70,55,29.63,29.34,30,8,30,0.00
2012-1-19,34.7,22.9,11.1,22.8,11.2,2.3,86,64,28,29.61,29.34,27,7,27,0.01
2012-1-20,26.6,18.5,7.5,22.7,8.2,0.5,86,65,40,29.70,29.45,14,5,14,0.00
2012-1-21,33.8,25.6,21.2,28.1,21.4,16.3,88,84,78,29.74,29.38,9,1,9,0.00
2012-1-22,29.7,24.8,18.5,27.4,20.9,13.7,93,85,80,29.82,29.69,0,0,0,0.00
2012-1-23,54.5,40.4,28.9,43.8,36.0,27.2,97,85,60,29.70,29.28,27,5,27,0.20
2012-1-24,47.1,39.3,31.8,34.6,31.1,27.1,84,73,57,29.76,29.42,27,8,27,0.00
2012-1-25,51.4,36.9,28.2,32.2,28.1,23.8,88,73,41,29.84,29.65,14,4,14,0.00
2012-1-26,47.3,38.9,36.1,46.5,36.3,31.7,99,90,81,29.66,29.18,8,2,8,0.39
2012-1-27,53.8,40.6,30.2,50.8,37.4,24.2,97,88,78,29.54,29.01,28,9,28,0.19
2012-1-28,43.3,32.5,26.6,34.1,23.1,5.4,87,70,41,29.65,29.41,32,8,32,0.01
2012-1-29,39.0,29.7,23.7,26.6,11.3,5.2,88,49,28,29.68,29.47,27,11,27,0.00
2012-1-30,47.7,31.5,19.0,22.4,13.9,3.8,70,51,29,29.80,29.65,27,7,27,0.00
2012-1-31,58.8,51.1,44.8,30.6,21.9,17.4,43,34,26,29.73,29.57,22,11,22,0.00
2012-2-1,53.2,47.3,41.2,47.0,42.3,31.9,99,84,49,29.61,29.52,29,10,29,0.11
2012-2-2,43.2,36.5,30.6,42.3,32.7,24.2,99,86,71,29.85,29.52,20,6,20,0.01
2012-2-3,50.9,34.7,24.3,31.9,24.7,20.6,89,69,41,29.96,29.83,18,3,18,0.00
2012-2-4,36.7,30.3,23.4,32.3,27.7,19.8,97,90,79,29.83,29.57,6,1,6,0.00
2012-2-5,45.9,32.4,25.2,33.2,26.2,17.0,97,79,54,29.72,29.54,11,1,11,0.15
2012-2-6,46.4,33.7,20.1,25.1,20.4,15.7,87,61,37,29.70,29.57,12,4,12,0.07
2012-2-7,43.7,34.2,24.1,30.5,24.9,18.8,83,70,48,29.72,29.60,14,6,17,0.00
2012-2-8,34.3,28.4,23.4,30.6,24.3,18.6,89,84,77,29.73,29.58,14,4,15,0.05
2012-2-9,35.8,26.9,20.5,21.1,15.6,9.7,77,64,39,29.74,29.66,17,6,17,0.01
2012-2-10,32.2,28.1,24.6,25.3,19.1,15.0,88,69,60,29.67,29.38,13,5,13,0.00
2012-2-11,29.3,20.8,9.7,25.4,15.3,2.9,87,79,66,29.48,29.26,27,8,27,0.00
2012-2-12,18.5,13.2,8.8,8.7,4.5,1.4,75,68,54,29.60,29.48,26,9,26,0.00
2012-2-13,34.2,24.4,14.2,15.3,11.0,6.0,75,58,43,29.66,29.55,23,7,23,0.00
2012-2-14,40.5,31.0,26.2,32.6,25.5,13.4,94,80,44,29.57,29.43,11,1,11,0.02
2012-2-15,43.2,34.2,30.7,32.1,27.9,24.6,94,78,58,29.77,29.53,13,4,13,0.02
2012-2-16,43.7,39.8,33.6,43.2,36.9,26.7,99,90,69,29.72,29.48,10,2,10,0.21
2012-2-17,43.0,37.0,28.9,42.0,26.5,19.1,99,68,48,29.63,29.52,18,7,18,0.04
2012-2-18,47.8,34.6,23.2,28.2,22.1,14.8,82,62,43,29.61,29.43,27,8,27,0.00
2012-2-19,34.7,28.7,21.2,22.2,18.8,15.5,82,67,52,29.62,29.43,14,5,14,0.00
2012-2-20,42.4,30.0,20.1,19.8,14.4,6.5,79,55,28,29.78,29.52,14,5,14,0.00
2012-2-21,48.2,37.3,27.0,35.9,21.5,10.6,77,54,42,29.76,29.34,28,6,28,0.00
2012-2-22,54.0,44.5,36.3,40.4,30.7,20.3,97,62,33,31.47,29.02,24,8,24,0.08
2012-2-23,50.2,45.0,39.0,40.0,33.4,27.2,93,66,45,29.22,29.01,22,7,22,0.15
2012-2-24,61.7,42.9,30.0,51.5,36.5,19.6,99,80,37,29.23,28.96,31,11,31,0.18
2012-2-25,30.4,25.5,23.4,24.9,16.7,12.4,86,69,54,29.75,29.22,28,14,28,0.00
2012-2-26,44.1,31.2,21.7,18.6,12.7,7.1,66,49,26,29.91,29.75,13,4,13,0.00
2012-2-27,56.8,41.7,24.1,29.6,20.9,11.7,69,47,32,29.86,29.67,26,8,26,0.00
2012-2-28,52.9,37.9,22.1,23.7,17.4,11.7,77,50,23,29.95,29.73,20,4,20,0.00
2012-2-29,62.6,46.6,36.0,56.4,39.7,17.8,99,79,48,29.73,29.18,24,5,24,1.04
2012-3-1,54.5,43.2,28.8,49.2,32.7,23.4,83,67,56,29.48,29.16,34,12,34,0.06
2012-3-2,47.8,38.2,25.7,44.0,32.4,21.3,99,80,61,29.49,29.11,15,5,15,0.22
2012-3-3,53.4,41.4,30.2,50.2,28.0,14.0,97,62,31,29.31,29.07,27,11,27,0.01
2012-3-4,31.5,27.3,25.0,21.8,18.2,12.7,79,69,55,29.38,29.22,20,9,20,0.00
2012-3-5,31.5,24.5,19.8,24.8,16.2,11.1,83,71,55,29.91,29.36,25,7,25,0.00
2012-3-6,47.8,30.6,13.3,21.5,14.5,5.1,73,53,32,30.03,29.90,11,4,11,0.00
2012-3-7,65.3,50.1,32.5,37.9,23.6,9.4,67,40,23,29.97,29.79,24,5,24,0.00
2012-3-8,65.5,53.2,37.9,51.9,44.7,36.0,99,74,52,29.80,29.49,28,10,28,0.22
2012-3-9,42.6,34.4,25.9,36.4,22.4,10.8,94,63,43,29.86,29.60,34,11,34,0.01
2012-3-10,45.3,29.2,19.9,17.2,11.2,4.0,69,51,23,30.00,29.85,20,5,20,0.00
2012-3-11,65.7,45.6,24.1,33.3,20.6,14.6,76,45,21,29.97,29.85,15,3,15,0.00
2012-3-12,71.1,49.3,33.4,52.9,37.7,22.9,99,72,21,29.88,29.65,14,3,14,0.22
2012-3-13,68.5,60.7,53.8,57.0,52.7,45.8,99,77,51,29.67,29.60,24,9,24,0.00
2012-3-14,73.8,59.8,46.2,49.0,44.1,32.4,87,60,32,29.79,29.67,17,4,17,0.00
2012-3-15,75.6,57.3,40.5,51.1,45.7,39.9,99,70,40,29.79,29.69,15,3,15,0.00
2012-3-16,67.5,59.1,50.4,56.4,52.8,47.3,99,81,62,29.77,29.68,14,4,14,0.00
2012-3-17,73.8,57.2,39.7,59.8,47.3,37.7,99,76,31,29.84,29.75,10,3,10,0.00
2012-3-18,74.7,60.1,54.0,59.6,54.6,51.4,97,84,52,29.84,29.72,11,2,11,0.04
2012-3-19,71.6,58.8,50.0,59.9,55.3,49.7,99,89,61,29.75,29.69,12,3,12,0.05
2012-3-20,75.6,59.8,50.2,61.3,54.3,49.9,99,84,52,29.82,29.72,11,2,11,0.00
2012-3-21,61.0,57.7,53.1,59.1,56.7,52.5,99,97,89,29.87,29.77,9,2,9,0.00
2012-3-22,82.2,65.6,54.7,62.2,53.1,40.2,99,71,29,29.81,29.67,13,4,13,0.00
2012-3-23,80.2,63.0,46.8,62.7,54.2,46.5,99,77,43,29.71,29.52,14,3,14,0.00
2012-3-24,63.5,57.5,52.5,59.3,55.9,52.0,99,95,73,29.54,29.41,12,3,12,0.93
2012-3-25,62.1,54.5,50.5,56.1,52.2,50.1,99,93,72,29.47,29.36,21,6,21,0.01
2012-3-26,52.3,42.2,29.5,50.1,29.4,8.6,93,64,35,29.76,29.46,29,12,29,0.00
2012-3-27,59.2,38.6,20.5,20.8,12.2,2.3,67,38,22,29.84,29.62,14,4,14,0.00
2012-3-28,69.6,57.6,37.9,58.0,39.9,20.4,91,54,27,29.63,29.28,34,12,34,0.06
2012-3-29,55.0,45.0,34.5,43.6,36.5,30.3,85,73,55,29.59,29.35,25,10,25,0.00
2012-3-30,63.0,44.4,28.4,50.5,38.4,27.9,99,82,56,29.59,29.31,17,4,17,0.11
2012-3-31,54.7,48.2,41.2,53.5,46.3,38.2,99,93,85,29.46,29.30,14,6,14,0.28
2012-4-1,65.8,50.7,39.9,52.9,40.6,29.3,99,74,31,29.45,29.20,20,7,20,0.37
2012-4-2,56.5,46.1,37.2,50.8,33.2,22.6,99,65,31,29.54,29.21,24,10,24,0.01
2012-4-3,70.0,51.2,28.4,36.8,25.0,15.0,92,47,16,29.58,29.37,24,3,24,0.00
2012-4-4,64.4,59.0,51.8,49.2,41.9,36.8,78,55,42,29.41,29.29,21,9,21,0.00
2012-4-5,63.5,63.5,63.5,40.7,40.7,40.7,45,45,45,29.29,29.29,17,17,17,0.00
2012-4-6,63.5,63.5,63.5,40.7,40.7,40.7,45,45,45,29.29,29.29,17,17,17,0.00
2012-4-7,63.5,63.5,63.5,40.7,40.7,40.7,45,45,45,29.29,29.29,17,17,17,0.00
2012-4-8,63.5,59.5,34.2,40.7,36.9,16.5,58,45,30,30.38,29.29,27,16,27,0.00
2012-4-9,52.3,45.0,39.6,39.8,31.0,16.9,96,62,34,29.98,29.80,27,10,27,0.06
2012-4-10,50.0,41.7,32.4,37.0,25.7,19.8,82,55,38,29.89,29.77,27,9,27,0.00
2012-4-11,40.8,34.1,29.8,35.8,29.5,23.4,97,83,70,30.07,29.84,23,8,23,0.08
2012-4-12,49.5,39.7,32.5,34.3,30.4,27.7,91,71,47,30.17,30.06,18,7,18,0.00
2012-4-13,64.8,45.7,28.2,36.8,28.1,20.0,97,59,23,30.23,30.14,15,2,15,0.00
2012-4-14,67.8,49.5,31.5,51.2,35.7,22.9,99,66,24,30.20,30.06,14,4,14,0.20
2012-4-15,77.7,64.5,50.9,56.9,51.6,46.6,99,67,42,30.11,30.01,23,7,23,0.02
2012-4-16,82.6,71.2,52.9,55.5,52.4,47.1,88,55,36,30.10,29.96,24,9,24,0.00
2012-4-17,66.6,54.0,46.2,49.5,39.5,28.8,84,61,32,30.29,30.09,22,6,22,0.00
2012-4-18,53.1,48.6,44.4,47.6,40.7,32.9,99,75,53,30.24,30.08,11,3,11,0.00
2012-4-19,72.3,55.5,39.9,52.3,43.9,37.2,99,71,32,30.11,29.99,13,3,13,0.00
2012-4-20,77.2,58.1,38.3,52.5,44.8,38.0,99,68,28,30.02,29.80,17,3,17,0.00
2012-4-21,64.8,52.5,41.7,53.9,48.9,41.5,99,88,67,29.85,29.75,15,5,15,0.13
2012-4-22,43.9,40.3,34.7,42.0,39.6,34.2,99,98,91,29.84,29.58,21,8,21,0.08
2012-4-23,36.3,33.4,31.5,34.7,32.0,23.6,99,95,67,29.58,29.41,21,5,21,0.17
2012-4-24,51.8,40.6,32.4,27.3,21.7,15.9,67,49,29,29.71,29.48,24,8,24,0.00
2012-4-25,62.1,49.9,37.0,36.6,28.3,22.3,65,47,26,29.88,29.70,19,5,19,0.00
2012-4-26,68.4,55.4,42.4,58.4,44.4,31.0,99,69,48,29.86,29.66,27,6,27,0.07
2012-4-27,49.8,40.9,35.6,39.0,29.8,23.9,91,66,45,30.18,29.84,30,9,30,0.01
2012-4-28,53.8,40.6,29.8,37.1,26.3,15.4,99,61,29,30.22,30.07,10,3,11,0.12
2012-4-29,68.2,49.1,30.9,44.9,28.4,16.3,99,58,18,30.23,30.11,16,4,16,0.01
2012-4-30,72.5,55.6,40.8,53.1,35.5,19.7,98,52,31,30.23,30.02,10,4,10,0.00
2012-5-1,76.3,65.4,53.8,60.9,56.2,51.3,99,76,46,30.08,29.96,17,6,17,0.19
2012-5-2,81.7,67.0,57.0,67.4,61.0,55.0,99,83,56,30.11,30.02,20,5,20,0.45
2012-5-3,86.4,73.0,61.3,66.8,61.7,57.3,99,71,44,30.19,30.05,14,4,17,0.19
2012-5-4,82.2,68.4,57.7,65.6,59.0,47.7,99,76,36,30.11,29.96,17,4,17,0.00
2012-5-5,74.1,63.0,55.0,65.9,61.4,54.2,99,95,73,30.04,29.94,6,1,6,0.20
2012-5-6,81.3,66.4,55.0,66.1,59.2,53.8,99,82,43,30.08,29.98,11,2,11,0.01
2012-5-7,77.2,64.9,57.6,65.6,61.1,57.1,99,89,66,30.06,29.91,10,4,10,0.00
2012-5-8,71.1,62.0,58.3,64.8,60.4,58.0,99,95,76,29.93,29.80,12,3,12,0.52
2012-5-9,63.0,56.3,46.6,59.4,53.6,46.3,99,91,67,29.87,29.73,101,3,101,0.12
2012-5-10,58.5,49.7,43.7,47.2,40.1,32.3,99,73,44,29.98,29.72,18,7,18,0.00
2012-5-11,66.9,53.2,37.8,40.1,36.1,30.7,87,57,35,30.22,29.98,23,5,23,0.00
2012-5-12,75.0,56.1,37.0,49.5,39.5,25.6,99,64,21,30.31,30.20,8,2,8,0.00
2012-5-13,72.5,57.3,49.5,55.8,51.6,47.3,99,84,46,30.23,30.13,10,2,10,0.54
2012-5-14,63.3,57.0,52.3,61.7,56.4,51.8,99,98,92,30.13,29.98,6,1,6,0.71
2012-5-15,73.6,62.1,54.0,60.8,57.5,53.1,99,86,57,30.01,29.96,10,2,10,0.00
2012-5-16,77.5,63.2,49.6,59.6,52.6,41.1,99,74,34,30.03,29.90,13,4,13,0.00
2012-5-17,71.1,55.9,43.0,52.9,37.7,25.3,98,58,22,30.14,30.03,13,4,13,0.00
2012-5-18,75.9,57.6,37.0,47.6,41.1,30.1,99,62,26,30.19,30.11,11,2,11,0.00
2012-5-19,80.1,61.7,40.6,57.6,46.1,37.0,99,65,28,30.20,30.13,12,2,12,0.00
2012-5-20,82.4,65.1,46.4,60.8,51.6,46.1,99,68,34,30.23,30.13,15,3,15,0.00
2012-5-21,69.1,61.4,57.0,65.2,59.6,51.6,99,94,72,30.13,29.94,11,2,11,0.14
2012-5-22,78.8,65.5,58.8,64.1,60.1,56.6,99,85,51,29.95,29.85,16,3,16,0.04
2012-5-23,75.4,64.5,55.2,63.3,59.9,54.4,99,87,65,29.99,29.90,14,2,14,0.07
2012-5-24,75.6,64.9,58.8,66.7,61.9,58.5,99,91,69,30.09,29.98,16,2,16,0.01
2012-5-25,88.0,72.4,57.9,66.4,62.0,7.7,99,75,40,30.15,27.74,11,2,11,0.00
2012-5-26,89.1,72.4,59.2,72.6,65.7,58.9,99,83,48,30.20,30.12,24,1,24,0.00
2012-5-27,89.1,69.7,60.6,73.6,65.4,-0.2,99,89,12,30.22,30.08,30,2,30,0.14
2012-5-28,92.1,74.1,60.4,72.8,65.4,60.2,99,79,45,30.12,29.97,8,2,8,0.00
2012-5-29,85.6,71.6,59.5,69.0,65.3,54.5,99,82,52,29.98,29.82,24,3,24,0.30
2012-5-30,80.8,66.8,53.6,66.3,55.8,50.6,99,73,42,29.93,29.80,14,3,14,0.06
2012-5-31,81.5,68.6,47.7,54.9,50.5,43.6,99,57,34,29.95,29.86,10,2,10,0.00
2012-6-1,68.4,61.7,57.4,66.6,58.3,52.7,99,89,75,29.91,29.64,19,3,19,0.45
2012-6-2,67.8,58.3,49.1,49.8,45.9,41.1,93,65,45,29.88,29.77,14,5,14,0.00
2012-6-3,70.9,58.7,48.2,53.8,49.4,46.0,99,75,44,29.87,29.76,21,5,21,0.38
2012-6-4,65.1,58.0,52.2,53.0,49.9,47.6,92,75,59,29.83,29.72,24,6,24,0.01
2012-6-5,59.7,52.6,47.5,53.9,50.7,47.2,99,93,77,29.97,29.82,12,3,12,0.15
2012-6-6,72.0,58.3,48.2,53.8,48.9,42.0,99,75,39,30.03,29.95,14,2,14,0.00
2012-6-7,75.4,58.6,43.2,56.3,49.4,42.6,99,76,38,30.06,30.00,23,3,23,0.00
2012-6-8,79.3,63.5,46.2,56.1,50.9,45.4,99,69,38,30.08,29.98,17,3,17,0.01
2012-6-9,83.5,68.4,52.9,55.6,52.3,45.8,96,63,32,30.09,30.01,14,3,14,0.00
2012-6-10,87.3,70.4,50.9,63.0,56.3,50.6,99,67,34,30.16,30.09,11,2,11,0.00
2012-6-11,76.8,66.0,54.7,66.4,61.4,53.8,99,87,63,30.16,30.05,14,2,14,0.05
2012-6-12,83.5,69.8,64.0,72.4,66.3,63.2,99,90,62,30.05,29.88,23,2,23,0.39
2012-6-13,73.6,63.1,50.9,63.2,49.7,36.8,98,68,32,30.14,29.97,17,7,17,0.00
2012-6-14,75.4,56.6,44.1,60.4,51.9,43.5,99,86,55,30.22,30.13,9,1,9,0.00
2012-6-15,79.2,69.3,55.4,61.1,57.3,52.8,99,68,46,30.29,30.20,11,3,11,0.00
2012-6-16,76.5,67.9,49.1,61.4,56.6,48.8,99,70,52,30.32,30.18,10,2,10,0.00
2012-6-17,81.0,66.2,52.5,64.5,58.7,52.0,99,79,54,30.19,30.00,12,2,12,0.37
2012-6-18,81.7,66.8,60.4,70.5,64.3,60.2,99,92,66,30.09,29.99,12,2,12,0.39
2012-6-19,88.0,74.6,61.3,69.6,65.5,60.8,99,77,49,30.18,30.07,8,2,8,0.01
2012-6-20,91.9,76.4,61.2,70.8,65.7,60.6,99,74,43,30.23,30.11,13,2,13,0.00
2012-6-21,90.3,76.4,61.7,72.4,67.2,61.1,99,77,47,30.12,29.96,11,2,11,0.00
2012-6-22,85.3,72.1,60.8,72.0,66.5,60.2,99,84,56,29.97,29.91,16,2,16,0.14
2012-6-23,83.1,67.2,53.6,66.2,56.1,48.8,99,73,36,30.10,29.97,14,2,14,0.00
2012-6-24,83.1,68.1,51.8,64.0,54.8,45.1,99,69,33,30.11,29.96,9,1,9,0.00
2012-6-25,73.8,64.2,52.0,63.4,52.9,43.9,97,70,42,29.97,29.85,25,6,25,0.05
2012-6-26,72.7,60.3,49.3,50.8,47.0,43.7,89,65,41,29.99,29.90,25,6,25,0.00
2012-6-27,80.8,66.6,47.8,55.4,51.7,47.1,98,63,40,30.04,29.93,27,4,27,0.00
2012-6-28,91.0,80.0,59.5,66.4,61.1,52.3,81,55,34,29.99,29.85,8,4,8,0.00
2012-6-29,94.5,82.3,64.2,75.1,68.2,63.2,99,66,45,30.01,29.82,14,5,14,1.04
2012-6-30,86.2,73.0,61.0,68.7,64.1,59.2,99,78,46,29.96,29.84,10,3,10,0.01
2012-7-1,88.2,76.2,67.3,71.2,65.2,61.9,95,71,42,30.03,29.94,8,2,8,0.00
2012-7-2,88.2,74.0,61.0,66.9,63.4,59.3,99,73,43,30.09,30.01,16,3,16,0.00
2012-7-3,90.0,73.3,59.5,70.3,65.1,59.3,99,79,44,30.07,29.98,24,2,24,0.00
2012-7-4,90.0,75.1,62.2,73.7,68.4,61.7,99,83,51,30.06,29.92,21,4,21,0.60
2012-7-5,90.7,78.0,64.0,72.0,66.7,60.7,99,71,41,30.03,29.95,16,4,16,0.00
2012-7-6,94.3,79.5,67.8,73.7,70.1,66.2,99,77,44,30.06,30.01,12,2,12,0.00
2012-7-7,96.8,80.5,66.4,75.7,71.0,66.1,99,77,45,30.06,29.96,16,2,16,0.00
2012-7-8,88.7,79.8,73.4,75.8,72.3,66.7,92,79,63,30.01,29.94,14,4,14,0.00
2012-7-9,84.7,73.9,61.3,66.9,60.2,53.8,86,65,40,30.05,29.97,14,4,14,0.00
2012-7-10,86.4,69.2,52.5,62.7,55.4,45.4,99,68,31,30.13,30.05,14,2,14,0.00
2012-7-11,84.7,69.4,54.3,67.4,61.0,53.5,99,78,45,30.20,30.11,10,2,10,0.00
2012-7-12,85.1,73.0,57.6,66.2,61.3,54.5,99,71,41,30.23,30.18,12,2,12,0.00
2012-7-13,73.9,64.9,60.1,66.3,62.2,58.9,99,92,68,30.29,30.21,7,1,7,0.18
2012-7-14,86.2,67.9,59.9,73.9,65.6,59.6,99,93,59,30.24,30.13,27,2,27,1.35
2012-7-15,85.6,72.4,66.9,72.6,69.0,66.6,99,90,60,30.19,30.08,13,2,13,0.08
2012-7-16,88.3,75.8,65.7,73.1,68.7,63.7,99,81,49,30.10,29.97,14,3,14,0.00
2012-7-17,91.0,77.7,63.7,72.6,68.3,62.8,99,76,47,30.02,29.93,8,3,8,0.00
2012-7-18,91.0,76.0,66.2,75.9,71.0,65.9,99,86,60,30.03,29.94,16,3,16,0.46
2012-7-19,88.2,72.0,63.5,74.1,67.9,62.6,99,89,57,30.06,29.94,14,2,14,0.31
2012-7-20,77.4,68.4,63.3,72.3,67.4,62.5,99,97,83,30.03,29.93,15,2,15,0.28
2012-7-21,70.5,64.7,60.3,66.1,62.7,1.1,99,94,12,30.15,30.02,8,2,8,0.00
2012-7-22,86.4,72.2,62.6,68.9,64.2,60.4,99,79,45,30.20,30.13,8,2,8,0.00
2012-7-23,81.1,72.6,62.4,71.8,67.1,61.7,99,84,66,30.18,29.97,12,3,12,0.00
2012-7-24,82.0,74.1,67.1,75.6,70.7,63.1,97,89,79,29.98,29.85,17,6,17,0.34
2012-7-25,85.3,69.7,54.1,63.4,58.6,52.5,99,73,40,30.03,29.90,11,2,17,0.00
2012-7-26,88.9,72.4,65.1,74.9,69.5,62.1,99,92,59,29.90,29.76,21,4,21,1.22
2012-7-27,82.9,72.0,66.0,73.2,69.0,65.7,99,91,67,29.97,29.83,13,3,13,0.17
2012-7-28,81.0,69.9,63.0,68.6,64.9,61.5,99,86,61,30.06,29.95,24,3,24,0.05
2012-7-29,81.0,68.8,58.5,65.4,61.1,55.7,99,80,47,30.11,30.03,14,3,14,0.00
2012-7-30,83.8,68.6,53.1,69.4,61.8,52.5,99,82,55,30.13,30.03,9,1,9,0.00
2012-7-31,84.2,66.3,62.8,72.7,64.9,61.9,99,96,66,30.06,29.92,11,1,11,1.25
2012-8-1,85.6,72.3,62.2,71.8,65.6,61.5,99,82,55,29.97,29.90,13,2,13,0.01
2012-8-2,89.1,75.6,58.3,70.1,63.9,58.0,99,72,44,30.02,29.94,8,1,8,0.00
2012-8-3,90.3,73.1,59.7,73.7,67.3,59.4,99,85,49,30.12,29.99,8,1,8,0.00
2012-8-4,86.7,73.3,63.9,75.9,69.1,63.0,99,87,64,30.17,30.10,8,1,8,0.01
2012-8-5,81.1,73.2,67.3,73.5,69.4,8.0,99,89,12,30.16,30.06,9,3,9,0.13
2012-8-6,83.8,70.5,60.3,69.3,65.6,59.3,99,87,49,30.15,30.06,11,2,11,0.01
2012-8-7,86.4,62.4,55.9,68.9,59.5,55.7,99,92,43,30.09,30.01,10,0,10,0.00
2012-8-8,88.0,74.4,54.1,68.5,63.3,53.3,99,73,46,30.07,29.99,8,2,8,0.00
2012-8-9,88.3,71.3,64.2,71.6,66.4,58.8,99,86,53,30.03,29.86,16,2,16,0.13
2012-8-10,80.4,69.2,62.1,70.8,64.5,61.5,99,87,63,29.92,29.76,9,2,9,0.50
2012-8-11,73.8,64.2,57.9,63.6,58.4,55.1,99,83,58,30.01,29.83,17,3,17,0.00
2012-8-12,75.2,64.7,56.3,61.2,58.6,55.8,99,83,55,30.08,29.98,11,2,11,0.00
2012-8-13,83.1,62.9,52.3,64.5,57.4,51.8,99,85,41,30.11,29.99,6,1,6,0.00
2012-8-14,84.0,68.8,58.1,67.8,62.9,57.8,99,84,49,30.01,29.88,8,1,8,0.01
2012-8-15,77.7,64.6,57.6,64.4,61.5,57.1,99,90,58,30.03,29.92,9,1,9,0.00
2012-8-16,82.8,66.0,52.9,65.8,58.8,52.3,99,81,49,30.07,29.94,8,2,8,0.00
2012-8-17,77.7,66.0,59.9,67.1,62.4,59.0,99,89,69,29.99,29.90,10,2,10,0.01
2012-8-18,78.3,63.7,55.2,63.3,56.0,48.6,99,80,44,30.01,29.93,11,2,11,0.00
2012-8-19,78.4,65.6,53.1,61.7,58.5,52.5,99,81,50,30.00,29.89,13,2,13,0.04
2012-8-20,78.1,63.3,54.9,64.9,58.6,54.0,99,87,49,30.03,29.90,12,2,12,0.17
2012-8-21,81.0,60.7,48.2,63.2,53.5,45.8,99,83,36,30.15,30.02,15,2,15,0.43
2012-8-22,81.9,62.8,48.4,65.2,54.5,47.4,99,80,35,30.19,30.12,10,1,10,0.01
2012-8-23,86.7,64.8,50.4,65.4,56.0,49.7,99,79,34,30.22,30.14,11,1,11,0.00
2012-8-24,84.2,66.4,52.2,67.3,59.6,51.6,99,82,51,30.23,30.15,8,1,8,0.00
2012-8-25,81.5,67.0,56.3,68.3,60.0,55.0,99,81,47,30.25,30.19,12,2,12,0.00
2012-8-26,79.5,68.7,63.1,69.3,64.9,60.8,99,89,66,30.25,30.15,14,3,14,0.25
2012-8-27,87.6,72.2,60.4,71.1,63.5,59.3,99,78,44,30.16,29.99,8,2,8,0.00
2012-8-28,80.6,70.8,61.0,68.2,62.9,57.6,99,78,50,30.06,29.97,16,4,16,0.01
2012-8-29,79.7,62.8,51.1,62.9,56.1,50.8,99,82,48,30.10,30.02,13,2,13,0.08
2012-8-30,87.3,64.4,47.3,60.3,54.3,47.0,99,76,34,30.17,30.09,8,1,8,0.00
2012-8-31,88.3,70.7,51.4,66.2,59.6,51.2,99,73,42,30.19,30.09,15,3,15,0.00
2012-9-1,84.0,74.8,67.3,73.1,69.2,65.3,99,84,67,30.17,30.08,11,3,11,0.05
2012-9-2,78.3,70.0,64.8,72.1,68.3,64.5,99,95,77,30.11,30.00,8,1,8,0.05
2012-9-3,79.3,71.4,68.5,73.3,69.9,68.2,99,95,80,30.07,30.00,8,2,8,0.00
2012-9-4,81.9,73.2,67.5,72.6,69.3,67.2,99,89,67,30.04,29.88,8,1,8,0.12
2012-9-5,87.3,73.8,63.5,70.7,67.4,62.5,99,84,48,29.95,29.87,12,2,12,0.01
2012-9-6,89.8,76.5,63.3,71.5,65.2,60.8,99,72,43,29.99,29.93,10,2,10,0.00
2012-9-7,89.6,72.7,61.7,70.3,64.5,60.6,99,80,43,30.02,29.86,7,1,7,0.00
2012-9-8,70.2,61.4,55.2,65.9,60.3,54.4,99,96,84,29.91,29.71,17,3,17,0.27
2012-9-9,69.6,58.0,50.0,55.9,52.5,44.7,99,85,45,30.04,29.89,14,4,14,0.08
2012-9-10,65.5,53.3,43.9,52.7,46.7,43.0,99,81,51,30.21,30.03,21,3,21,0.01
2012-9-11,79.3,55.1,37.2,52.7,45.4,36.5,99,76,33,30.31,30.21,9,1,9,0.00
2012-9-12,85.1,60.8,42.1,58.8,50.5,41.8,99,75,34,30.35,30.27,14,1,14,0.00
2012-9-13,83.5,57.0,47.7,62.7,52.7,47.4,99,87,45,30.36,30.25,6,0,6,0.00
2012-9-14,82.8,63.8,48.7,61.7,54.7,48.3,99,78,42,30.28,30.14,17,2,17,0.02
2012-9-15,66.9,55.2,42.8,57.5,49.6,42.3,99,84,57,30.28,30.16,14,3,14,0.00
2012-9-16,75.2,54.9,42.3,52.5,46.3,42.0,99,78,39,30.19,30.08,11,2,11,0.00
2012-9-17,79.0,58.0,39.7,61.4,51.5,39.5,99,83,40,30.11,29.93,8,2,8,0.06
2012-9-18,66.6,61.1,50.9,65.5,60.0,3.0,99,97,13,29.93,29.64,22,3,22,1.05
2012-9-19,62.1,51.4,39.2,51.3,41.3,36.6,99,72,43,30.16,29.92,17,4,17,0.00
2012-9-20,76.5,54.2,36.1,55.4,45.3,35.4,99,79,31,30.15,30.01,11,2,11,0.00
2012-9-21,76.6,62.5,50.2,59.0,54.8,49.9,99,79,48,30.04,29.90,10,2,10,0.00
2012-9-22,71.6,59.4,48.4,59.6,54.0,43.7,96,83,58,30.03,29.84,20,4,20,0.00
2012-9-23,60.4,49.4,41.7,44.9,41.8,36.5,97,77,47,30.16,30.03,14,4,14,0.00
2012-9-24,62.2,47.9,38.1,45.0,38.1,29.6,99,75,34,30.21,30.09,16,2,16,0.01
2012-9-25,72.3,52.0,33.1,53.5,41.3,29.5,99,73,24,30.15,30.03,11,2,11,0.00
2012-9-26,70.2,62.0,57.0,63.1,59.3,53.5,99,91,73,30.14,30.04,12,3,12,0.22
2012-9-27,75.4,63.1,57.9,65.0,61.1,57.6,99,94,66,30.19,30.09,8,2,8,0.54
2012-9-28,62.2,57.9,48.0,60.6,54.1,47.5,99,88,67,30.10,30.03,9,2,10,0.01
2012-9-29,59.2,48.8,39.2,51.5,45.1,38.9,99,88,65,30.05,29.93,12,2,12,0.00
2012-9-30,66.6,48.7,38.3,52.4,46.5,38.0,99,93,53,29.93,29.83,14,2,14,0.14
2012-10-1,70.7,49.6,33.8,55.3,44.9,33.3,99,87,41,29.96,29.88,10,2,10,0.01
2012-10-2,68.2,59.4,54.5,66.5,58.4,1.3,99,97,12,29.96,29.88,9,2,9,0.41
2012-10-3,75.9,65.8,60.4,66.2,62.4,60.2,99,90,68,30.16,29.95,9,1,9,0.01
2012-10-4,71.4,62.3,53.1,62.5,56.5,49.9,99,83,54,30.20,30.14,10,2,10,0.00
2012-10-5,74.8,62.5,54.7,58.9,54.6,51.6,94,78,49,30.16,29.96,10,3,10,0.00
2012-10-6,61.7,49.9,36.3,56.4,45.0,33.8,99,85,53,30.07,29.85,14,3,14,0.04
2012-10-7,51.8,42.0,35.2,41.8,38.7,33.8,99,89,63,30.12,29.98,17,2,17,0.06
2012-10-8,45.0,37.4,32.9,40.7,35.8,32.5,99,94,70,30.21,30.12,7,2,7,0.07
2012-10-9,64.0,46.6,37.2,44.7,39.7,36.3,99,81,43,30.16,30.01,8,2,8,0.00
2012-10-10,58.6,46.0,34.9,48.0,41.7,34.1,99,86,63,30.08,29.89,17,4,17,0.04
2012-10-11,61.5,44.4,32.4,34.0,29.0,21.7,82,59,26,30.23,30.07,17,3,17,0.00
2012-10-12,51.3,42.1,29.5,39.9,32.9,26.5,94,71,49,30.36,30.11,19,4,19,0.00
2012-10-13,62.1,43.2,25.2,41.9,32.9,23.2,96,70,42,30.37,30.13,10,2,10,0.00
2012-10-14,76.1,62.4,48.7,58.3,51.7,41.4,87,70,49,30.13,29.84,14,4,14,0.00
2012-10-15,64.8,55.0,43.9,58.1,51.3,43.4,99,88,72,29.85,29.74,24,6,24,0.34
2012-10-16,54.7,45.1,35.2,43.8,40.1,34.6,99,84,59,29.94,29.84,18,5,18,0.01
2012-10-17,72.0,48.7,31.6,47.2,36.4,27.3,99,72,23,29.95,29.83,8,2,8,0.00
2012-10-18,65.8,52.1,44.8,53.3,47.5,42.2,99,86,58,29.84,29.72,23,4,23,0.34
2012-10-19,66.9,53.1,43.3,52.7,44.0,36.8,99,76,36,29.85,29.63,14,3,14,0.07
2012-10-20,52.0,46.0,43.2,43.4,41.2,37.6,96,84,63,29.92,29.70,18,8,18,0.04
2012-10-21,54.7,45.5,39.0,43.7,40.2,36.3,99,83,57,30.12,29.91,14,5,14,0.00
2012-10-22,71.6,54.6,37.4,50.6,44.1,34.8,97,71,42,30.17,30.10,12,3,12,0.00
2012-10-23,74.8,62.3,51.4,58.0,51.7,47.7,94,71,45,30.12,30.05,20,3,20,0.01
2012-10-24,74.5,63.1,52.2,54.1,51.8,49.3,92,69,49,30.17,30.09,13,3,13,0.00
2012-10-25,79.7,60.5,45.7,58.8,51.9,44.9,99,79,35,30.17,30.08,16,3,16,0.00
2012-10-26,74.7,61.8,55.6,59.0,57.1,55.3,99,86,56,30.15,30.02,11,3,11,0.00
2012-10-27,63.5,55.7,47.1,56.6,52.7,46.9,99,91,66,30.02,29.90,12,4,12,0.00
2012-10-28,49.6,46.2,42.6,49.4,45.8,42.3,99,98,97,29.93,29.73,15,7,15,0.26
2012-10-29,67.8,38.4,32.7,42.2,37.6,32.5,99,98,38,30.89,29.21,28,10,28,1.74
2012-10-30,33.4,31.6,30.6,33.2,31.4,30.3,99,99,99,30.20,29.73,24,9,24,0.18
2012-10-31,37.4,33.4,31.3,34.7,32.8,31.0,99,98,89,30.44,30.19,21,8,21,0.14
2012-11-1,36.7,35.0,33.6,35.4,33.8,33.0,99,95,90,30.54,30.42,18,7,18,0.02
2012-11-2,39.6,34.8,32.4,35.0,30.9,28.1,98,86,71,30.73,30.50,24,8,24,0.02
2012-11-3,36.7,33.9,31.8,31.1,29.2,27.2,86,83,77,30.84,30.72,15,7,15,0.00
2012-11-4,36.3,32.8,30.9,30.0,26.7,24.4,85,78,66,30.84,30.81,16,5,16,0.00
2012-11-5,67.8,31.1,29.3,41.3,24.5,23.8,81,76,38,30.83,29.91,16,7,16,0.00
2012-11-6,43.0,31.7,24.1,27.3,23.3,20.1,88,72,54,29.91,29.76,12,3,12,0.00
2012-11-7,37.9,30.6,25.5,28.9,22.9,17.5,85,73,62,29.78,29.70,11,3,11,0.00
2012-11-8,41.7,32.9,24.6,28.4,22.3,11.9,80,65,48,29.92,29.77,18,6,18,0.00
2012-11-9,51.4,41.2,32.7,36.3,31.6,27.8,83,70,53,30.03,29.90,17,5,17,0.00
2012-11-10,65.1,49.4,36.3,36.7,32.7,26.6,88,57,31,30.13,30.00,13,3,13,0.00
2012-11-11,72.1,51.4,33.1,45.7,34.6,20.1,96,62,18,30.21,30.10,16,3,16,0.00
2012-11-12,67.5,55.7,38.1,53.0,47.9,37.4,98,77,56,30.11,29.89,21,8,21,0.07
2012-11-13,38.1,31.9,28.6,37.4,24.9,20.1,98,76,63,30.24,30.05,20,5,20,0.02
2012-11-14,39.4,30.9,27.0,27.3,23.1,20.3,81,73,58,30.28,30.16,11,4,11,0.00
2012-11-15,29.8,29.1,28.2,24.1,23.5,21.6,81,79,76,30.16,30.11,3,2,3,0.00
2012-11-16,50.9,33.6,23.9,35.1,25.8,22.0,99,76,37,30.24,30.06,13,2,13,0.00
2012-11-17,52.2,34.4,20.8,33.7,23.1,17.3,97,69,29,30.35,30.23,14,2,14,0.00
2012-11-18,50.2,38.0,27.0,33.6,28.8,21.0,89,71,49,30.34,30.24,11,2,11,0.00
2012-11-19,49.8,39.7,30.4,38.9,34.3,29.1,96,82,59,30.25,29.99,8,2,8,0.00
2012-11-20,54.9,40.5,28.2,43.8,31.7,24.3,99,74,37,30.00,29.88,7,2,7,0.00
2012-11-21,56.1,39.4,26.1,39.2,27.2,15.7,99,68,24,30.03,29.93,12,2,12,0.00
2012-11-22,63.0,40.3,23.7,36.5,25.4,19.3,98,64,23,30.05,29.88,8,1,8,0.00
2012-11-23,54.1,41.1,27.5,46.7,34.4,16.8,99,78,61,29.89,29.63,27,7,27,0.13
2012-11-24,28.0,25.5,24.1,22.8,19.2,14.3,86,77,64,29.82,29.71,24,9,24,0.00
2012-11-25,36.7,29.7,23.4,19.9,17.1,14.1,77,61,42,29.80,29.65,20,8,20,0.00
2012-11-26,46.8,37.9,29.7,29.7,25.1,19.7,84,62,43,29.97,29.74,15,4,15,0.00
2012-11-27,39.4,32.6,29.7,37.8,30.0,23.9,99,90,77,30.03,29.93,11,3,11,0.09
2012-11-28,35.8,30.6,28.0,25.1,21.5,17.0,87,70,52,30.11,29.99,18,6,18,0.00
2012-11-29,43.2,32.3,25.9,28.1,20.4,14.1,80,63,37,30.16,30.05,11,3,11,0.01
2012-11-30,54.0,43.3,34.2,31.0,25.8,14.2,76,52,35,30.09,30.01,11,3,11,0.04
2012-12-1,57.0,40.6,26.2,40.9,32.6,22.7,93,75,55,30.15,30.06,16,2,16,0.00
2012-12-2,59.9,48.1,34.7,52.3,44.0,30.6,98,86,63,30.09,29.90,21,5,21,0.06
2012-12-3,59.7,54.2,51.6,56.7,53.3,51.3,99,97,87,30.06,29.96,11,3,11,0.02
2012-12-4,66.9,55.5,43.9,55.5,50.3,43.4,99,85,53,30.03,29.83,28,5,28,0.11
2012-12-5,46.0,37.2,24.6,45.2,31.9,17.9,97,82,65,30.08,29.88,21,7,21,0.02
2012-12-6,43.0,29.6,16.3,27.9,21.3,12.5,90,73,50,30.07,29.89,9,2,9,0.00
2012-12-7,51.8,42.9,31.8,51.3,41.7,24.6,99,96,74,29.90,29.71,8,1,8,0.45
2012-12-8,55.2,50.5,45.1,52.6,49.4,44.3,99,96,85,29.86,29.67,14,5,14,0.13
2012-12-9,45.9,43.4,42.1,45.1,42.9,41.8,99,98,97,29.94,29.69,13,3,13,0.25
2012-12-10,55.6,48.5,33.3,52.6,47.0,31.5,99,95,81,29.70,29.41,25,5,25,0.14
2012-12-11,35.4,31.8,28.9,32.6,29.1,24.8,96,90,81,29.98,29.57,16,5,16,0.01
2012-12-12,41.4,28.6,21.6,29.8,22.0,18.8,90,77,53,30.18,29.96,9,2,9,0.00
2012-12-13,43.5,29.2,14.7,36.4,19.4,11.1,93,70,40,30.19,30.06,9,2,9,0.00
2012-12-14,48.2,37.8,20.1,24.9,18.1,8.2,89,49,24,30.07,30.01,14,5,14,0.01
2012-12-15,50.4,37.2,26.6,29.5,21.9,15.0,75,57,29,30.03,29.08,11,3,11,0.00
2012-12-16,50.2,44.0,39.4,43.6,38.0,29.7,98,80,67,29.80,29.60,7,1,7,0.00
2012-12-17,55.6,48.0,41.5,51.7,46.2,41.3,99,94,76,29.63,29.36,10,2,10,0.33
2012-12-18,45.3,38.6,33.4,44.5,35.4,28.3,99,88,80,29.62,29.36,24,10,24,0.07
2012-12-19,41.0,37.6,34.9,37.6,34.1,29.3,96,87,73,29.94,29.57,16,6,16,0.01
2012-12-20,37.6,34.9,33.8,34.7,32.1,29.1,97,89,80,29.93,29.24,21,6,21,0.43
2012-12-21,36.3,27.8,25.3,35.6,23.5,20.2,97,84,71,29.43,29.17,30,11,30,0.26
2012-12-22,26.4,24.4,22.3,23.4,18.9,15.5,90,79,72,29.81,29.40,30,11,30,0.07
2012-12-23,41.9,30.3,21.0,22.9,18.7,10.8,82,64,38,29.80,29.65,21,6,21,0.00
2012-12-24,36.1,27.1,19.2,35.4,23.2,15.0,98,86,66,29.77,29.62,10,2,10,0.00
2012-12-25,37.0,33.0,29.3,36.3,29.4,25.7,98,87,74,29.96,29.65,16,5,16,0.08
2012-12-26,29.8,25.5,22.3,26.9,22.9,19.6,94,90,83,29.95,29.36,26,5,26,0.00
2012-12-27,27.9,26.0,24.6,25.7,23.1,20.7,92,88,84,29.82,29.35,22,8,22,0.00
2012-12-28,34.9,26.8,23.7,24.6,20.4,17.4,89,77,62,29.88,29.71,14,4,14,0.00
2012-12-29,33.4,27.8,25.0,31.2,24.4,19.0,95,87,71,29.73,29.38,36,6,36,0.01
2012-12-30,27.3,23.1,20.8,22.4,18.4,15.6,89,82,74,30.05,29.64,28,11,28,0.00
2012-12-31,34.7,27.1,20.7,28.4,20.1,14.6,91,76,46,30.03,29.75,27,10,27,0.00
2013-1-1,32.2,28.4,24.4,27.2,24.7,18.1,94,86,75,29.78,29.68,22,9,22,0.00